createdAt,value
2023-03-19T00:00:26.412Z,1.48
2023-03-19T00:02:53.094Z,1.48
2023-03-19T00:05:19.838Z,1.63
2023-03-19T00:07:46.405Z,1.58
2023-03-19T00:10:13.014Z,1.70
2023-03-19T00:12:39.751Z,1.55
2023-03-19T00:15:06.816Z,1.50
2023-03-19T00:17:33.348Z,1.50
2023-03-19T00:19:59.857Z,1.83
2023-03-19T00:22:26.386Z,1.60
2023-03-19T00:24:52.909Z,1.55
2023-03-19T00:27:19.421Z,1.65
2023-03-19T00:29:45.945Z,2.00
2023-03-19T00:32:12.679Z,1.98
2023-03-19T00:34:39.407Z,1.90
2023-03-19T00:37:05.962Z,1.92
2023-03-19T00:39:32.998Z,1.73
2023-03-19T00:41:59.553Z,1.80
2023-03-19T00:44:26.182Z,1.90
2023-03-19T00:46:52.858Z,2.08
2023-03-19T00:49:19.443Z,1.75
2023-03-19T00:51:46.005Z,1.73
2023-03-19T00:54:12.822Z,2.10
2023-03-19T00:56:39.689Z,2.17
2023-03-19T00:59:06.235Z,2.33
2023-03-19T01:01:33.273Z,2.30
2023-03-19T01:03:59.887Z,2.00
2023-03-19T01:06:26.607Z,2.30
2023-03-19T01:08:53.114Z,2.38
2023-03-19T01:11:19.721Z,2.30
2023-03-19T01:13:46.355Z,2.00
2023-03-19T01:16:12.833Z,2.40
2023-03-19T01:18:39.411Z,2.15
2023-03-19T01:21:06.271Z,2.47
2023-03-19T01:23:32.782Z,2.58
2023-03-19T01:25:59.272Z,2.25
2023-03-19T01:28:25.961Z,2.00
2023-03-19T01:30:52.696Z,2.30
2023-03-19T01:33:19.204Z,2.40
2023-03-19T01:35:47.013Z,2.08
2023-03-19T01:38:13.674Z,2.33
2023-03-19T01:40:48.362Z,2.17
2023-03-19T01:43:21.643Z,1.92
2023-03-19T01:45:51.616Z,2.20
2023-03-19T01:48:40.757Z,2.20
2023-03-19T01:51:11.179Z,2.17
2023-03-19T01:53:39.967Z,2.05
2023-03-19T01:56:22.188Z,2.20
2023-03-19T01:58:51.533Z,2.25
2023-03-19T02:01:18.742Z,2.05
2023-03-19T02:03:46.139Z,2.40
2023-03-19T02:06:14.032Z,2.00
2023-03-19T02:08:41.392Z,2.13
2023-03-19T02:11:07.976Z,2.30
2023-03-19T02:13:35.804Z,1.70
2023-03-19T02:16:02.737Z,1.98
2023-03-19T02:18:29.603Z,2.10
2023-03-19T02:21:06.550Z,2.28
2023-03-19T02:23:58.103Z,2.42
2023-03-19T02:26:27.039Z,2.33
2023-03-19T02:28:53.920Z,1.73
2023-03-19T02:31:20.846Z,2.10
2023-03-19T02:34:09.191Z,2.20
2023-03-19T02:36:38.783Z,1.73
2023-03-19T02:39:12.992Z,1.65
2023-03-19T02:41:41.290Z,1.90
2023-03-19T02:44:11.807Z,1.67
2023-03-19T02:46:38.517Z,1.58
2023-03-19T02:49:05.130Z,1.60
2023-03-19T02:51:31.629Z,1.60
2023-03-19T02:53:58.169Z,2.00
2023-03-19T02:56:24.683Z,1.63
2023-03-19T02:58:51.204Z,1.77
2023-03-19T03:01:17.831Z,1.85
2023-03-19T03:03:44.389Z,1.92
2023-03-19T03:06:10.924Z,1.88
2023-03-19T03:08:37.511Z,1.90
2023-03-19T03:11:04.145Z,1.63
2023-03-19T03:13:30.788Z,2.03
2023-03-19T03:15:57.312Z,1.80
2023-03-19T03:18:23.899Z,1.33
2023-03-19T03:20:50.397Z,1.90
2023-03-19T03:23:16.896Z,1.88
2023-03-19T03:25:43.421Z,1.77
2023-03-19T03:28:09.992Z,1.70
2023-03-19T03:30:36.557Z,1.90
2023-03-19T03:33:03.257Z,1.90
2023-03-19T03:35:29.804Z,1.73
2023-03-19T03:37:56.404Z,1.90
2023-03-19T03:40:22.909Z,1.92
2023-03-19T03:42:49.446Z,1.75
2023-03-19T03:45:15.967Z,1.88
2023-03-19T03:47:42.490Z,1.83
2023-03-19T03:50:09.642Z,2.13
2023-03-19T03:52:36.454Z,1.80
2023-03-19T03:55:03.535Z,1.80
2023-03-19T03:57:30.016Z,1.67
2023-03-19T03:59:56.623Z,1.50
2023-03-19T04:02:23.318Z,1.85
2023-03-19T04:04:49.855Z,1.77
2023-03-19T04:07:16.403Z,1.90
2023-03-19T04:09:43.177Z,1.95
2023-03-19T04:12:09.883Z,1.73
2023-03-19T04:14:36.371Z,2.00
2023-03-19T04:17:02.914Z,1.65
2023-03-19T04:19:29.550Z,1.92
2023-03-19T04:21:56.085Z,2.05
2023-03-19T04:24:22.640Z,2.22
2023-03-19T04:26:49.168Z,2.33
2023-03-19T04:29:16.476Z,2.00
2023-03-19T04:31:42.954Z,2.25
2023-03-19T04:34:09.562Z,2.33
2023-03-19T04:36:36.076Z,2.42
2023-03-19T04:39:03.081Z,1.92
2023-03-19T04:41:29.595Z,2.72
2023-03-19T04:43:56.085Z,2.35
2023-03-19T04:46:22.666Z,2.40
2023-03-19T04:48:49.277Z,2.53
2023-03-19T04:51:15.836Z,2.72
2023-03-19T04:53:42.438Z,2.33
2023-03-19T04:56:08.990Z,2.35
2023-03-19T04:58:35.484Z,2.30
2023-03-19T05:01:02.089Z,2.42
2023-03-19T05:03:28.642Z,2.28
2023-03-19T05:05:56.316Z,2.70
2023-03-19T05:08:22.888Z,2.70
2023-03-19T05:10:49.493Z,2.13
2023-03-19T05:13:16.059Z,2.67
2023-03-19T05:15:44.157Z,3.03
2023-03-19T05:18:11.126Z,2.05
2023-03-19T05:20:38.279Z,2.40
2023-03-19T05:23:05.550Z,2.60
2023-03-19T05:25:34.223Z,2.65
2023-03-19T05:28:01.295Z,2.35
2023-03-19T05:30:27.832Z,3.22
2023-03-19T05:32:56.905Z,2.50
2023-03-19T05:35:23.750Z,2.80
2023-03-19T05:37:50.375Z,2.60
2023-03-19T05:40:17.058Z,2.63
2023-03-19T05:42:43.597Z,2.92
2023-03-19T05:45:10.514Z,2.15
2023-03-19T05:47:36.999Z,2.20
2023-03-19T05:50:03.991Z,2.45
2023-03-19T05:52:30.539Z,2.30
2023-03-19T05:54:57.076Z,2.63
2023-03-19T05:57:26.188Z,2.90
2023-03-19T05:59:52.680Z,2.78
2023-03-19T06:02:19.408Z,2.80
2023-03-19T06:04:46.060Z,3.03
2023-03-19T06:07:12.611Z,3.00
2023-03-19T06:09:39.609Z,2.58
2023-03-19T06:12:06.788Z,2.55
2023-03-19T06:14:33.508Z,3.10
2023-03-19T06:17:00.356Z,2.88
2023-03-19T06:19:26.870Z,3.38
2023-03-19T06:21:53.399Z,2.60
2023-03-19T06:24:19.905Z,3.10
2023-03-19T06:26:46.448Z,3.08
2023-03-19T06:29:12.936Z,3.45
2023-03-19T06:31:39.647Z,3.30
2023-03-19T06:34:06.252Z,3.60
2023-03-19T06:36:32.828Z,3.30
2023-03-19T06:38:59.365Z,2.80
2023-03-19T06:41:25.835Z,3.25
2023-03-19T06:43:52.545Z,2.75
2023-03-19T06:46:19.241Z,3.05
2023-03-19T06:48:45.919Z,3.63
2023-03-19T06:51:12.424Z,3.45
2023-03-19T06:53:38.993Z,2.80
2023-03-19T06:56:05.940Z,3.17
2023-03-19T06:58:32.524Z,2.92
2023-03-19T07:00:59.090Z,3.33
2023-03-19T07:03:25.708Z,3.17
2023-03-19T07:05:52.305Z,3.38
2023-03-19T07:08:19.089Z,3.45
2023-03-19T07:10:45.666Z,3.03
2023-03-19T07:13:12.660Z,3.10
2023-03-19T07:15:39.144Z,3.47
2023-03-19T07:18:05.750Z,3.40
2023-03-19T07:20:33.165Z,3.28
2023-03-19T07:22:59.877Z,3.10
2023-03-19T07:25:26.398Z,2.95
2023-03-19T07:27:55.808Z,2.72
2023-03-19T07:30:22.864Z,2.95
2023-03-19T07:32:49.458Z,2.78
2023-03-19T07:35:16.152Z,3.33
2023-03-19T07:37:42.814Z,3.13
2023-03-19T07:40:10.433Z,2.90
2023-03-19T07:42:36.936Z,2.63
2023-03-19T07:45:04.534Z,2.80
2023-03-19T07:47:31.111Z,2.75
2023-03-19T07:49:58.313Z,2.55
2023-03-19T07:52:26.077Z,2.55
2023-03-19T07:54:53.347Z,2.65
2023-03-19T07:57:20.157Z,2.53
2023-03-19T07:59:46.703Z,2.50
2023-03-19T08:02:13.703Z,2.42
2023-03-19T08:04:40.620Z,2.35
2023-03-19T08:07:07.264Z,2.45
2023-03-19T08:09:33.831Z,2.10
2023-03-19T08:12:00.347Z,2.38
2023-03-19T08:14:26.960Z,2.00
2023-03-19T08:16:53.487Z,1.90
2023-03-19T08:19:20.094Z,2.25
2023-03-19T08:21:46.594Z,2.10
2023-03-19T08:24:13.118Z,2.33
2023-03-19T08:26:39.610Z,1.95
2023-03-19T08:29:06.614Z,1.98
2023-03-19T08:31:33.292Z,2.45
2023-03-19T08:33:59.941Z,2.30
2023-03-19T08:36:26.467Z,2.03
2023-03-19T08:38:52.944Z,2.30
2023-03-19T08:41:19.514Z,1.83
2023-03-19T08:43:46.140Z,1.98
2023-03-19T08:46:15.837Z,2.25
2023-03-19T08:48:42.524Z,2.00
2023-03-19T08:51:09.791Z,2.20
2023-03-19T08:53:37.538Z,2.25
2023-03-19T08:56:05.983Z,2.03
2023-03-19T08:58:32.785Z,2.72
2023-03-19T09:01:04.870Z,2.30
2023-03-19T09:03:32.502Z,2.28
2023-03-19T09:06:00.695Z,2.30
2023-03-19T09:08:28.402Z,2.60
2023-03-19T09:10:55.765Z,2.60
2023-03-19T09:13:23.152Z,2.45
2023-03-19T09:15:50.399Z,14.20
2023-03-19T09:18:17.434Z,2.75
2023-03-19T09:20:45.041Z,2.35
2023-03-19T09:23:11.560Z,2.60
2023-03-19T09:25:38.531Z,2.88
2023-03-19T09:28:05.244Z,2.30
2023-03-19T09:30:31.772Z,2.63
2023-03-19T09:32:58.572Z,2.45
2023-03-19T09:35:25.108Z,2.50
2023-03-19T09:37:52.897Z,2.45
2023-03-19T09:40:27.554Z,2.55
2023-03-19T09:43:22.157Z,2.80
2023-03-19T09:45:49.613Z,2.40
2023-03-19T09:48:25.990Z,2.50
2023-03-19T09:50:53.626Z,2.45
2023-03-19T09:53:44.193Z,2.20
2023-03-19T09:56:14.559Z,2.35
2023-03-19T09:58:41.305Z,2.30
2023-03-19T10:01:16.909Z,2.20
2023-03-19T10:04:01.667Z,1.90
2023-03-19T10:06:30.262Z,1.80
2023-03-19T10:09:24.654Z,2.28
2023-03-19T10:11:59.273Z,2.10
2023-03-19T10:15:02.666Z,2.30
2023-03-19T10:17:36.847Z,2.40
2023-03-19T10:20:17.390Z,2.00
2023-03-19T10:23:22.620Z,2.90
2023-03-19T10:25:52.442Z,3.35
2023-03-19T10:28:19.749Z,2.75
2023-03-19T10:31:09.694Z,3.00
2023-03-19T10:33:50.300Z,2.90
2023-03-19T10:36:20.461Z,3.53
2023-03-19T10:38:47.014Z,4.00
2023-03-19T10:41:39.033Z,2.90
2023-03-19T10:44:28.610Z,3.10
2023-03-19T10:46:58.248Z,2.72
2023-03-19T10:49:24.800Z,2.67
2023-03-19T10:51:51.471Z,2.33
2023-03-19T10:54:23.983Z,2.30
2023-03-19T10:56:54.639Z,2.65
2023-03-19T10:59:32.376Z,2.50
2023-03-19T11:02:05.451Z,1.95
2023-03-19T11:04:31.986Z,2.10
2023-03-19T11:07:13.418Z,1.95
2023-03-19T11:12:24.241Z,1.45
2023-03-19T11:14:53.309Z,1.52
2023-03-19T11:17:26.382Z,1.70
2023-03-19T11:19:55.993Z,1.70
2023-03-19T11:25:01.460Z,1.27
2023-03-19T11:27:35.771Z,1.50
2023-03-19T11:30:13.024Z,1.25
2023-03-19T11:33:11.198Z,1.50
2023-03-19T11:35:44.187Z,1.40
2023-03-19T11:38:40.761Z,2.28
2023-03-19T11:41:11.959Z,1.80
2023-03-19T11:44:10.950Z,1.85
2023-03-19T11:49:34.254Z,2.10
2023-03-19T11:52:08.783Z,1.92
2023-03-19T11:54:41.714Z,1.58
2023-03-19T11:57:40.161Z,2.20
2023-03-19T12:00:35.782Z,1.67
2023-03-19T12:03:35.969Z,2.50
2023-03-19T12:06:27.659Z,1.83
2023-03-19T12:09:27.842Z,1.80
2023-03-19T12:12:18.496Z,1.60
2023-03-19T12:15:16.183Z,1.90
2023-03-19T12:18:01.381Z,1.65
2023-03-19T12:20:27.940Z,1.70
2023-03-19T12:23:05.932Z,1.50
2023-03-19T12:25:50.380Z,1.45
2023-03-19T12:28:28.673Z,1.33
2023-03-19T12:31:13.834Z,1.13
2023-03-19T12:34:01.803Z,1.20
2023-03-19T12:36:32.848Z,1.30
2023-03-19T12:39:06.084Z,1.52
2023-03-19T12:41:36.679Z,1.70
2023-03-19T12:44:19.426Z,1.20
2023-03-19T12:46:51.581Z,1.30
2023-03-19T12:49:30.029Z,1.10
2023-03-19T12:52:33.276Z,0.70
2023-03-19T12:55:19.635Z,1.10
2023-03-19T12:57:54.622Z,1.10
2023-03-19T13:00:39.482Z,1.05
2023-03-19T13:03:22.487Z,0.93
2023-03-19T13:06:20.220Z,1.13
2023-03-19T13:09:07.217Z,1.00
2023-03-19T13:12:00.346Z,1.17
2023-03-19T13:14:36.943Z,1.20
2023-03-19T13:17:28.031Z,1.30
2023-03-19T13:19:55.429Z,1.20
2023-03-19T13:22:31.084Z,1.35
2023-03-19T13:25:00.167Z,1.02
2023-03-19T13:27:31.382Z,1.33
2023-03-19T13:30:09.341Z,1.10
2023-03-19T13:32:38.515Z,1.17
2023-03-19T13:35:32.907Z,0.93
2023-03-19T13:38:03.155Z,0.80
2023-03-19T13:40:43.430Z,0.80
2023-03-19T13:43:30.176Z,0.70
2023-03-19T13:46:12.010Z,0.90
2023-03-19T13:48:52.452Z,1.00
2023-03-19T13:51:19.160Z,0.70
2023-03-19T13:53:54.986Z,0.55
2023-03-19T13:56:29.462Z,0.70
2023-03-19T13:59:15.084Z,0.50
2023-03-19T14:01:43.359Z,0.68
2023-03-19T14:04:28.338Z,0.63
2023-03-19T14:06:59.387Z,0.32
2023-03-19T14:09:38.576Z,0.73
2023-03-19T14:12:25.212Z,0.50
2023-03-19T14:14:56.480Z,0.60
2023-03-19T14:17:36.345Z,0.55
2023-03-19T14:20:17.193Z,0.43
2023-03-19T14:23:11.436Z,0.65
2023-03-19T14:25:56.450Z,0.63
2023-03-19T14:28:38.137Z,1.10
2023-03-19T14:31:06.300Z,0.93
2023-03-19T14:34:00.042Z,0.60
2023-03-19T14:36:27.465Z,0.93
2023-03-19T14:39:01.729Z,1.20
2023-03-19T14:41:33.456Z,1.17
2023-03-19T14:44:26.570Z,1.05
2023-03-19T14:47:22.155Z,1.23
2023-03-19T14:50:28.510Z,1.52
2023-03-19T14:53:22.345Z,2.00
2023-03-19T14:55:53.027Z,2.30
2023-03-19T14:58:20.521Z,2.35
2023-03-19T15:00:50.088Z,3.28
2023-03-19T15:03:29.400Z,2.55
2023-03-19T15:06:04.438Z,2.70
2023-03-19T15:08:33.457Z,2.30
2023-03-19T15:11:19.324Z,2.33
2023-03-19T15:13:51.910Z,1.90
2023-03-19T15:16:24.649Z,2.47
2023-03-19T15:18:51.490Z,2.17
2023-03-19T15:21:18.784Z,1.67
2023-03-19T15:23:47.212Z,2.28
2023-03-19T15:26:14.249Z,2.50
2023-03-19T15:28:49.849Z,3.30
2023-03-19T15:31:31.227Z,3.17
2023-03-19T15:34:21.373Z,2.88
2023-03-19T15:36:56.344Z,3.60
2023-03-19T15:39:26.612Z,3.90
2023-03-19T15:41:54.430Z,6.35
2023-03-19T15:44:36.264Z,7.45
2023-03-19T15:47:06.614Z,5.88
2023-03-19T15:49:41.920Z,4.28
2023-03-19T15:52:12.977Z,4.60
2023-03-19T15:54:40.404Z,3.42
2023-03-19T15:57:09.391Z,5.65
2023-03-19T15:59:36.389Z,5.45
2023-03-19T16:02:11.118Z,3.97
2023-03-19T16:05:03.595Z,4.60
2023-03-19T16:07:30.312Z,3.90
2023-03-19T16:09:57.158Z,4.20
2023-03-19T16:12:40.741Z,5.97
2023-03-19T16:15:22.714Z,6.35
2023-03-19T16:17:49.488Z,5.05
2023-03-19T16:20:16.329Z,2.60
2023-03-19T16:22:45.760Z,6.13
2023-03-19T16:25:17.252Z,6.78
2023-03-19T16:27:44.040Z,6.30
2023-03-19T16:30:24.729Z,3.50
2023-03-19T16:32:58.420Z,2.97
2023-03-19T16:35:25.056Z,5.35
2023-03-19T16:37:53.666Z,3.03
2023-03-19T16:40:20.160Z,1.58
2023-03-19T16:42:48.744Z,1.83
2023-03-19T16:45:15.270Z,1.92
2023-03-19T16:47:42.503Z,4.18
2023-03-19T16:50:09.903Z,3.10
2023-03-19T16:52:37.903Z,3.45
2023-03-19T16:55:05.801Z,1.92
2023-03-19T16:57:32.600Z,1.92
2023-03-19T16:59:59.263Z,1.95
2023-03-19T17:02:26.672Z,2.50
2023-03-19T17:04:53.208Z,2.20
2023-03-19T17:07:20.162Z,2.45
2023-03-19T17:09:46.687Z,1.88
2023-03-19T17:12:16.013Z,2.22
2023-03-19T17:14:42.998Z,3.42
2023-03-19T17:17:18.847Z,2.45
2023-03-19T17:19:46.624Z,3.65
2023-03-19T17:22:13.253Z,2.78
2023-03-19T17:24:40.497Z,3.15
2023-03-19T17:27:07.006Z,3.05
2023-03-19T17:29:33.523Z,2.58
2023-03-19T17:32:01.171Z,3.10
2023-03-19T17:34:30.309Z,2.85
2023-03-19T17:36:59.828Z,3.78
2023-03-19T17:39:27.290Z,2.67
2023-03-19T17:41:53.809Z,3.03
2023-03-19T17:44:20.378Z,2.95
2023-03-19T17:46:50.002Z,2.47
2023-03-19T17:49:30.359Z,2.90
2023-03-19T17:51:57.975Z,4.30
2023-03-19T17:54:25.099Z,5.75
2023-03-19T17:56:51.594Z,3.90
2023-03-19T17:59:18.339Z,3.88
2023-03-19T18:01:45.394Z,4.28
2023-03-19T18:04:17.962Z,3.90
2023-03-19T18:06:49.536Z,3.35
2023-03-19T18:09:21.903Z,3.67
2023-03-19T18:11:48.482Z,3.50
2023-03-19T18:14:14.962Z,4.35
2023-03-19T18:16:42.178Z,3.42
2023-03-19T18:19:25.437Z,3.80
2023-03-19T18:21:51.920Z,3.33
2023-03-19T18:24:18.412Z,3.40
2023-03-19T18:26:44.932Z,3.45
2023-03-19T18:29:11.479Z,4.15
2023-03-19T18:31:38.214Z,3.40
2023-03-19T18:34:08.327Z,3.25
2023-03-19T18:36:35.166Z,5.30
2023-03-19T18:39:02.005Z,4.05
2023-03-19T18:41:28.565Z,4.43
2023-03-19T18:43:55.394Z,4.38
2023-03-19T18:46:30.379Z,9.00
2023-03-19T18:49:02.644Z,4.28
2023-03-19T18:51:29.422Z,4.00
2023-03-19T18:53:56.034Z,4.78
2023-03-19T18:56:28.890Z,4.65
2023-03-19T18:58:57.116Z,4.88
2023-03-19T19:01:24.250Z,5.13
2023-03-19T19:03:52.054Z,5.97
2023-03-19T19:06:44.184Z,5.80
2023-03-19T19:09:12.897Z,5.20
2023-03-19T19:11:41.252Z,4.70
2023-03-19T19:14:19.912Z,5.60
2023-03-19T19:16:46.675Z,6.10
2023-03-19T19:19:21.076Z,6.45
2023-03-19T19:21:47.767Z,6.45
2023-03-19T19:24:14.337Z,7.10
2023-03-19T19:26:43.427Z,6.90
2023-03-19T19:29:17.156Z,6.93
2023-03-19T19:31:43.698Z,10.10
2023-03-19T19:34:17.571Z,9.60
2023-03-19T19:36:46.527Z,9.48
2023-03-19T19:39:13.495Z,10.30
2023-03-19T19:41:40.621Z,8.95
2023-03-19T19:44:07.324Z,10.63
2023-03-19T19:46:34.610Z,10.55
2023-03-19T19:49:01.284Z,10.25
2023-03-19T19:51:28.263Z,10.60
2023-03-19T19:53:54.969Z,8.95
2023-03-19T19:56:25.850Z,10.23
2023-03-19T19:58:55.975Z,10.68
2023-03-19T20:01:24.811Z,10.55
2023-03-19T20:03:52.387Z,11.38
2023-03-19T20:06:19.944Z,11.48
2023-03-19T20:08:46.980Z,11.02
2023-03-19T20:11:25.286Z,11.02
2023-03-19T20:13:53.690Z,11.57
2023-03-19T20:16:22.530Z,10.13
2023-03-19T20:18:49.287Z,9.65
2023-03-19T20:21:15.846Z,11.82
2023-03-19T20:23:44.024Z,9.98
2023-03-19T20:26:19.255Z,8.80
2023-03-19T20:28:46.865Z,9.07
2023-03-19T20:31:19.267Z,9.52
2023-03-19T20:33:46.204Z,8.60
2023-03-19T20:36:14.538Z,8.52
2023-03-19T20:39:01.192Z,9.25
2023-03-19T20:41:27.778Z,8.93
2023-03-19T20:43:55.407Z,9.90
2023-03-19T20:46:22.644Z,9.07
2023-03-19T20:48:49.502Z,8.95
2023-03-19T20:51:21.776Z,9.13
2023-03-19T20:53:48.540Z,8.60
2023-03-19T20:56:16.828Z,9.07
2023-03-19T20:58:44.253Z,8.32
2023-03-19T21:01:11.135Z,7.70
2023-03-19T21:03:38.128Z,7.25
2023-03-19T21:06:06.860Z,8.18
2023-03-19T21:08:36.441Z,7.97
2023-03-19T21:11:03.620Z,6.95
2023-03-19T21:13:31.108Z,6.95
2023-03-19T21:15:57.730Z,7.18
2023-03-19T21:18:24.255Z,6.45
2023-03-19T21:20:55.366Z,7.88
2023-03-19T21:23:35.217Z,7.82
2023-03-19T21:26:16.277Z,6.88
2023-03-19T21:28:44.260Z,7.13
2023-03-19T21:31:19.209Z,7.88
2023-03-19T21:33:47.343Z,8.27
2023-03-19T21:36:14.328Z,7.78
2023-03-19T21:38:41.773Z,8.05
2023-03-19T21:41:26.203Z,9.35
2023-03-19T21:43:55.899Z,8.38
2023-03-19T21:46:25.778Z,7.53
2023-03-19T21:51:19.773Z,7.40
2023-03-19T21:53:46.458Z,8.25
2023-03-19T21:56:24.832Z,8.77
2023-03-19T21:58:52.771Z,10.57
2023-03-19T22:01:22.694Z,9.70
2023-03-19T22:06:16.172Z,10.45
2023-03-19T22:08:43.257Z,10.30
2023-03-19T22:11:20.115Z,10.40
2023-03-19T22:13:47.450Z,10.30
2023-03-19T22:16:24.929Z,9.60
2023-03-19T22:18:52.612Z,9.60
2023-03-19T22:21:21.898Z,9.98
2023-03-19T22:23:49.600Z,9.02
2023-03-19T22:26:34.696Z,9.63
2023-03-19T22:29:07.539Z,9.48
2023-03-19T22:31:34.663Z,10.35
2023-03-19T22:34:01.283Z,8.88
2023-03-19T22:36:28.039Z,8.45
2023-03-19T22:38:54.546Z,8.70
2023-03-19T22:41:30.367Z,9.73
2023-03-19T22:43:58.474Z,10.68
2023-03-19T22:46:25.739Z,9.25
2023-03-19T22:48:52.506Z,9.38
2023-03-19T22:51:24.654Z,8.98
2023-03-19T22:53:51.437Z,9.15
2023-03-19T22:56:19.080Z,8.55
2023-03-19T22:58:45.796Z,9.25
2023-03-19T23:01:21.172Z,10.73
2023-03-19T23:03:49.864Z,9.60
2023-03-19T23:06:29.590Z,9.68
2023-03-19T23:08:56.521Z,9.88
2023-03-19T23:11:23.070Z,9.50
2023-03-19T23:13:49.664Z,10.30
2023-03-19T23:16:24.282Z,9.88
2023-03-19T23:18:51.783Z,10.00
2023-03-19T23:21:20.113Z,9.23
2023-03-19T23:23:46.750Z,9.38
2023-03-19T23:26:24.029Z,10.02
2023-03-19T23:28:50.571Z,8.63
2023-03-19T23:31:17.253Z,8.68
2023-03-19T23:33:43.792Z,9.75
2023-03-19T23:36:10.709Z,8.13
2023-03-19T23:38:37.195Z,8.93
2023-03-19T23:41:03.986Z,9.02
2023-03-19T23:43:32.205Z,8.77
2023-03-19T23:45:58.996Z,8.70
2023-03-19T23:48:27.889Z,9.63
2023-03-19T23:50:54.482Z,9.40
2023-03-19T23:53:26.223Z,8.35
2023-03-19T23:55:59.518Z,9.82
2023-03-19T23:58:38.843Z,10.02
